Time;durP1;ratioP1;P1;durP2;ratioP2;P2;SDS_P1;SDS_P2;PMS_P1;PMS_P2;Temp;Humidity;BMP_temperature;BMP_pressure;BME280_temperature;BME280_humidity;BME280_pressure;Samples;Min_cycle;Max_cycle;Signal;HPM_P1;HPM_P2
2022/12/09 00:02:13;;;;;;;8.70;8.00;;;;;;;;;;5077964;28;20743;-91
2022/12/09 00:04:39;;;;;;;9.10;8.30;;;;;;;;;;5093057;28;20410;-92
2022/12/09 00:07:05;;;;;;;9.30;8.38;;;;;;;;;;5093127;28;20455;-92
2022/12/09 00:09:31;;;;;;;8.80;8.00;;;;;;;;;;5086317;28;20450;-92
2022/12/09 00:11:57;;;;;;;10.45;8.23;;;;;;;;;;5091990;28;20378;-90
2022/12/09 00:14:23;;;;;;;9.02;8.13;;;;;;;;;;5097478;28;20457;-91
2022/12/09 00:16:49;;;;;;;9.88;8.70;;;;;;;;;;5099392;28;20374;-91
2022/12/09 00:19:15;;;;;;;8.57;7.78;;;;;;;;;;5089289;28;20424;-93
2022/12/09 00:21:42;;;;;;;10.60;9.45;;;;;;;;;;5092566;28;20374;-91
2022/12/09 00:24:10;;;;;;;10.27;9.18;;;;;;;;;;5092454;28;20379;-91
2022/12/09 00:26:36;;;;;;;9.02;8.20;;;;;;;;;;5092644;28;20370;-92
2022/12/09 00:29:02;;;;;;;9.07;8.18;;;;;;;;;;5090880;28;20471;-91
2022/12/09 00:31:31;;;;;;;8.48;7.68;;;;;;;;;;5096617;28;20372;-91
2022/12/09 00:33:58;;;;;;;8.95;8.07;;;;;;;;;;5102244;28;20443;-92
2022/12/09 00:36:24;;;;;;;9.27;8.38;;;;;;;;;;5092715;28;20416;-91
2022/12/09 00:38:50;;;;;;;8.80;8.00;;;;;;;;;;5092307;28;20437;-91
2022/12/09 00:41:17;;;;;;;8.65;7.85;;;;;;;;;;5092783;28;20386;-92
2022/12/09 00:43:44;;;;;;;9.13;8.23;;;;;;;;;;5089092;28;20837;-91
2022/12/09 00:46:10;;;;;;;8.35;7.65;;;;;;;;;;5092557;28;20515;-92
2022/12/09 00:48:37;;;;;;;8.25;7.55;;;;;;;;;;5092236;28;20819;-92
2022/12/09 00:51:04;;;;;;;8.18;7.47;;;;;;;;;;5092184;28;20393;-90
2022/12/09 00:53:30;;;;;;;8.32;7.63;;;;;;;;;;5074126;28;20375;-91
2022/12/09 00:55:56;;;;;;;8.48;7.68;;;;;;;;;;5092357;28;20386;-91
2022/12/09 00:58:22;;;;;;;8.63;7.93;;;;;;;;;;5092120;28;20504;-92
2022/12/09 01:00:52;;;;;;;8.70;7.90;;;;;;;;;;5091639;28;20461;-91
2022/12/09 01:03:19;;;;;;;7.88;7.18;;;;;;;;;;5092287;28;20396;-91
2022/12/09 01:05:45;;;;;;;8.15;7.45;;;;;;;;;;5092421;28;20388;-91
2022/12/09 01:08:11;;;;;;;8.43;7.70;;;;;;;;;;5091804;28;20922;-93
2022/12/09 01:10:38;;;;;;;8.55;7.72;;;;;;;;;;5094492;28;20377;-92
2022/12/09 01:13:04;;;;;;;8.93;8.02;;;;;;;;;;5095817;28;20393;-90
2022/12/09 01:15:30;;;;;;;8.50;7.70;;;;;;;;;;5095859;28;20482;-92
2022/12/09 01:17:56;;;;;;;8.95;8.10;;;;;;;;;;5092363;28;20430;-92
2022/12/09 01:20:22;;;;;;;8.25;7.55;;;;;;;;;;5104751;28;20384;-91
2022/12/09 01:22:48;;;;;;;8.52;7.82;;;;;;;;;;5096070;28;20385;-92
2022/12/09 01:25:14;;;;;;;8.55;7.75;;;;;;;;;;5095855;28;20411;-91
2022/12/09 01:27:40;;;;;;;8.10;7.40;;;;;;;;;;5095810;28;20378;-91
2022/12/09 01:30:07;;;;;;;8.63;7.83;;;;;;;;;;5095905;28;20389;-91
2022/12/09 01:32:33;;;;;;;9.18;8.38;;;;;;;;;;5095885;28;20393;-91
2022/12/09 01:35:01;;;;;;;8.50;7.80;;;;;;;;;;5095822;28;20511;-91
2022/12/09 01:37:27;;;;;;;9.15;8.35;;;;;;;;;;5095752;28;20410;-92
2022/12/09 01:39:53;;;;;;;8.23;7.40;;;;;;;;;;5095356;28;20885;-92
2022/12/09 01:42:21;;;;;;;8.90;8.10;;;;;;;;;;5095430;28;20431;-92
2022/12/09 01:45:06;;;;;;;9.30;8.20;;;;;;;;;;5095304;28;20851;-91
2022/12/09 01:47:32;;;;;;;8.75;7.95;;;;;;;;;;5095477;28;20460;-91
2022/12/09 01:49:58;;;;;;;9.45;8.55;;;;;;;;;;5095585;28;20470;-91
2022/12/09 01:52:24;;;;;;;9.18;8.38;;;;;;;;;;5077354;28;20387;-92
2022/12/09 01:54:51;;;;;;;8.68;7.78;;;;;;;;;;5098491;28;20442;-92
2022/12/09 01:57:17;;;;;;;9.18;8.38;;;;;;;;;;5108474;28;20385;-92
2022/12/09 01:59:44;;;;;;;9.15;8.35;;;;;;;;;;5095641;28;20734;-91
2022/12/09 02:02:13;;;;;;;9.77;8.87;;;;;;;;;;5090561;28;20415;-91
2022/12/09 02:04:40;;;;;;;9.45;8.45;;;;;;;;;;5097413;28;20511;-92
2022/12/09 02:07:09;;;;;;;9.63;8.77;;;;;;;;;;5094245;28;20428;-91
2022/12/09 02:09:35;;;;;;;10.25;9.35;;;;;;;;;;5095048;28;20932;-91
2022/12/09 02:12:15;;;;;;;10.40;9.32;;;;;;;;;;5091344;28;20728;-92
2022/12/09 02:14:50;;;;;;;10.83;9.73;;;;;;;;;;5076490;28;20441;-91
2022/12/09 02:17:35;;;;;;;10.43;9.52;;;;;;;;;;5109195;28;20890;-91
2022/12/09 02:20:16;;;;;;;10.85;9.85;;;;;;;;;;5086667;28;20389;-92
2022/12/09 02:22:53;;;;;;;10.25;9.30;;;;;;;;;;5108129;28;20418;-91
2022/12/09 02:25:19;;;;;;;10.75;9.77;;;;;;;;;;5094676;28;20422;-90
2022/12/09 02:27:49;;;;;;;10.18;9.27;;;;;;;;;;5094563;28;20443;-91
2022/12/09 02:30:23;;;;;;;10.60;9.63;;;;;;;;;;5094649;28;20456;-91
2022/12/09 02:32:55;;;;;;;11.25;10.15;;;;;;;;;;5094404;28;20540;-91
2022/12/09 02:35:30;;;;;;;10.90;9.82;;;;;;;;;;5094531;28;20398;-93
2022/12/09 02:37:58;;;;;;;11.15;10.15;;;;;;;;;;5080254;28;20415;-92
2022/12/09 02:40:33;;;;;;;10.90;9.90;;;;;;;;;;5082361;28;20855;-91
2022/12/09 02:43:00;;;;;;;12.32;11.05;;;;;;;;;;5092157;28;20473;-92
2022/12/09 02:45:27;;;;;;;12.45;11.35;;;;;;;;;;5093780;28;20728;-91
2022/12/09 02:47:54;;;;;;;12.23;11.02;;;;;;;;;;5094292;28;20387;-91
2022/12/09 02:50:22;;;;;;;13.17;11.87;;;;;;;;;;5090047;28;20500;-92
2022/12/09 02:52:51;;;;;;;13.23;11.93;;;;;;;;;;5094343;28;20776;-91
2022/12/09 02:55:18;;;;;;;11.68;10.60;;;;;;;;;;5075925;28;20927;-92
2022/12/09 02:57:44;;;;;;;12.27;11.18;;;;;;;;;;5094193;28;20466;-93
2022/12/09 03:00:12;;;;;;;12.57;11.38;;;;;;;;;;5094326;28;20382;-91
2022/12/09 03:02:40;;;;;;;12.18;11.05;;;;;;;;;;5094274;28;20419;-91
2022/12/09 03:05:18;;;;;;;13.52;12.13;;;;;;;;;;5094340;28;20419;-90
2022/12/09 03:07:53;;;;;;;13.05;11.75;;;;;;;;;;5075953;28;20782;-91
2022/12/09 03:10:33;;;;;;;14.77;12.93;;;;;;;;;;5095572;28;20504;-91
2022/12/09 03:13:05;;;;;;;13.77;12.48;;;;;;;;;;5104243;28;20474;-91
2022/12/09 03:15:33;;;;;;;13.13;11.80;;;;;;;;;;5108054;28;20420;-91
2022/12/09 03:18:02;;;;;;;14.45;13.05;;;;;;;;;;5089979;28;20443;-92
2022/12/09 03:20:30;;;;;;;14.18;12.68;;;;;;;;;;5089294;28;20508;-91
2022/12/09 03:22:58;;;;;;;13.77;12.57;;;;;;;;;;5094070;28;20914;-93
2022/12/09 03:25:27;;;;;;;14.80;13.23;;;;;;;;;;5108471;28;20459;-91
2022/12/09 03:27:55;;;;;;;15.07;13.57;;;;;;;;;;5079693;28;20414;-93
2022/12/09 03:30:21;;;;;;;15.23;13.65;;;;;;;;;;5093413;28;20419;-92
2022/12/09 03:32:48;;;;;;;15.00;13.50;;;;;;;;;;5092473;28;20408;-91
2022/12/09 03:35:17;;;;;;;15.38;13.88;;;;;;;;;;5093287;28;20393;-91
2022/12/09 03:37:43;;;;;;;14.98;13.57;;;;;;;;;;5093475;28;20450;-92
2022/12/09 03:40:11;;;;;;;15.05;13.48;;;;;;;;;;5093383;28;20435;-92
2022/12/09 03:42:46;;;;;;;15.60;13.77;;;;;;;;;;5093418;28;20422;-91
2022/12/09 03:45:13;;;;;;;14.82;13.40;;;;;;;;;;5093568;28;20446;-91
2022/12/09 03:47:39;;;;;;;15.07;13.57;;;;;;;;;;5065403;28;20864;-92
2022/12/09 03:50:06;;;;;;;15.38;12.90;;;;;;;;;;5090719;28;20386;-91
2022/12/09 03:52:36;;;;;;;14.68;13.27;;;;;;;;;;5093354;28;20389;-90
2022/12/09 03:55:22;;;;;;;14.73;13.33;;;;;;;;;;5092686;28;20427;-92
2022/12/09 03:57:50;;;;;;;14.68;13.27;;;;;;;;;;5091970;28;20477;-91
2022/12/09 04:00:17;;;;;;;14.23;12.93;;;;;;;;;;5108628;28;20877;-93
2022/12/09 04:02:43;;;;;;;13.47;12.23;;;;;;;;;;5093029;28;20446;-92
2022/12/09 04:05:09;;;;;;;14.60;13.13;;;;;;;;;;5093012;28;20427;-91
2022/12/09 04:07:35;;;;;;;13.82;12.48;;;;;;;;;;5090559;28;20431;-91
2022/12/09 04:10:01;;;;;;;13.98;12.68;;;;;;;;;;5091440;28;20421;-91
2022/12/09 04:12:27;;;;;;;13.82;12.48;;;;;;;;;;5089849;28;20410;-91
2022/12/09 04:14:53;;;;;;;13.95;12.55;;;;;;;;;;5093190;28;20792;-91
2022/12/09 04:17:19;;;;;;;14.37;12.90;;;;;;;;;;5092864;28;20385;-91
2022/12/09 04:19:45;;;;;;;13.63;12.32;;;;;;;;;;5083869;28;20382;-91
2022/12/09 04:22:11;;;;;;;14.40;12.90;;;;;;;;;;5074377;28;20453;-92
2022/12/09 04:24:37;;;;;;;14.05;12.65;;;;;;;;;;5085200;28;20384;-93
2022/12/09 04:27:03;;;;;;;13.70;12.40;;;;;;;;;;5086030;28;20757;-92
2022/12/09 04:29:29;;;;;;;14.23;12.93;;;;;;;;;;5085363;28;20390;-92
2022/12/09 04:31:55;;;;;;;14.20;12.80;;;;;;;;;;5092657;28;20381;-91
2022/12/09 04:34:21;;;;;;;14.10;12.70;;;;;;;;;;5079798;28;20384;-91
2022/12/09 04:36:48;;;;;;;15.30;12.77;;;;;;;;;;5080362;28;20467;-92
2022/12/09 04:39:14;;;;;;;13.85;12.55;;;;;;;;;;5057485;28;20427;-92
2022/12/09 04:41:40;;;;;;;15.55;13.95;;;;;;;;;;5082720;28;20378;-92
2022/12/09 04:44:06;;;;;;;14.30;12.85;;;;;;;;;;5086303;28;20432;-91
2022/12/09 04:46:32;;;;;;;15.50;13.90;;;;;;;;;;5082704;28;20445;-91
2022/12/09 04:48:58;;;;;;;15.30;13.80;;;;;;;;;;5079125;28;20801;-91
2022/12/09 04:51:24;;;;;;;15.33;13.80;;;;;;;;;;5079702;28;20720;-92
2022/12/09 04:53:50;;;;;;;16.08;14.57;;;;;;;;;;5058538;28;20458;-91
2022/12/09 04:56:17;;;;;;;15.43;13.90;;;;;;;;;;5084220;28;20414;-93
2022/12/09 04:58:44;;;;;;;15.55;14.02;;;;;;;;;;5086581;28;20450;-90
2022/12/09 05:01:11;;;;;;;17.45;15.65;;;;;;;;;;5092779;28;20384;-91
2022/12/09 05:03:37;;;;;;;16.80;15.10;;;;;;;;;;5074796;28;20496;-91
2022/12/09 05:06:04;;;;;;;16.67;14.97;;;;;;;;;;5075155;28;20468;-91
2022/12/09 05:08:30;;;;;;;18.10;16.20;;;;;;;;;;5091181;28;20392;-90
2022/12/09 05:10:56;;;;;;;17.90;15.98;;;;;;;;;;5095990;28;20386;-93
2022/12/09 05:13:25;;;;;;;19.33;16.63;;;;;;;;;;5091053;28;20398;-89
2022/12/09 05:15:51;;;;;;;18.88;16.73;;;;;;;;;;5096678;28;20503;-89
2022/12/09 05:18:17;;;;;;;19.05;17.05;;;;;;;;;;5090424;28;20412;-89
2022/12/09 05:20:43;;;;;;;19.95;16.95;;;;;;;;;;5093926;28;20413;-90
2022/12/09 05:23:09;;;;;;;18.85;16.83;;;;;;;;;;5086678;28;20380;-90
2022/12/09 05:25:35;;;;;;;20.03;17.73;;;;;;;;;;5091346;28;20787;-88
2022/12/09 05:28:01;;;;;;;20.10;17.83;;;;;;;;;;5095751;28;20781;-91
2022/12/09 05:30:27;;;;;;;21.10;18.27;;;;;;;;;;5093921;28;20731;-91
2022/12/09 05:32:53;;;;;;;20.40;18.20;;;;;;;;;;5093806;28;20378;-90
2022/12/09 05:35:20;;;;;;;20.38;18.17;;;;;;;;;;5084301;28;20390;-91
2022/12/09 05:37:46;;;;;;;21.17;18.42;;;;;;;;;;5109331;28;20403;-90
2022/12/09 05:40:12;;;;;;;20.98;18.52;;;;;;;;;;5110086;28;20387;-89
2022/12/09 05:42:38;;;;;;;21.70;19.15;;;;;;;;;;5083617;28;20896;-89
2022/12/09 05:45:04;;;;;;;20.10;17.92;;;;;;;;;;5098123;28;20391;-88
2022/12/09 05:47:30;;;;;;;21.83;18.70;;;;;;;;;;5105145;28;20378;-92
2022/12/09 05:49:56;;;;;;;20.98;18.63;;;;;;;;;;5081509;28;20384;-90
2022/12/09 05:52:22;;;;;;;21.20;18.95;;;;;;;;;;5104194;28;20372;-89
2022/12/09 05:54:47;;;;;;;20.90;18.63;;;;;;;;;;5115775;28;20384;-90
2022/12/09 05:57:13;;;;;;;20.75;17.95;;;;;;;;;;5094138;28;20378;-90
2022/12/09 05:59:40;;;;;;;21.02;18.88;;;;;;;;;;5108122;28;20479;-91
2022/12/09 06:02:06;;;;;;;21.27;18.95;;;;;;;;;;5100190;28;20366;-90
2022/12/09 06:04:32;;;;;;;21.85;18.92;;;;;;;;;;5086161;28;20443;-90
2022/12/09 06:06:57;;;;;;;21.88;19.55;;;;;;;;;;5096012;28;20918;-90
2022/12/09 06:09:23;;;;;;;21.10;18.73;;;;;;;;;;5095571;28;20439;-90
2022/12/09 06:11:49;;;;;;;20.25;18.15;;;;;;;;;;5095136;28;20382;-89
2022/12/09 06:14:15;;;;;;;20.30;18.17;;;;;;;;;;5095062;28;20516;-88
2022/12/09 06:16:41;;;;;;;20.63;18.33;;;;;;;;;;5092038;28;20379;-90
2022/12/09 06:19:09;;;;;;;22.70;18.60;;;;;;;;;;5085127;28;20402;-91
2022/12/09 06:21:38;;;;;;;21.38;18.60;;;;;;;;;;5087906;28;20988;-90
2022/12/09 06:24:04;;;;;;;21.90;18.98;;;;;;;;;;5091758;28;20398;-90
2022/12/09 06:26:30;;;;;;;21.55;18.48;;;;;;;;;;5086967;28;20387;-90
2022/12/09 06:28:56;;;;;;;21.20;18.10;;;;;;;;;;5090891;28;20377;-92
2022/12/09 06:31:22;;;;;;;21.98;17.92;;;;;;;;;;5085015;28;20382;-90
2022/12/09 06:33:49;;;;;;;21.50;19.20;;;;;;;;;;5085538;28;20475;-92
2022/12/09 06:36:15;;;;;;;21.75;18.67;;;;;;;;;;5090644;28;20711;-91
2022/12/09 06:38:41;;;;;;;20.27;18.05;;;;;;;;;;5086555;28;20908;-90
2022/12/09 06:41:08;;;;;;;22.23;19.65;;;;;;;;;;5109609;28;20467;-90
2022/12/09 06:43:34;;;;;;;21.35;18.85;;;;;;;;;;5109876;28;20862;-90
2022/12/09 06:46:00;;;;;;;21.58;18.80;;;;;;;;;;5103679;28;20376;-90
2022/12/09 06:48:26;;;;;;;21.23;18.08;;;;;;;;;;5107393;28;20772;-91
2022/12/09 06:50:52;;;;;;;20.95;18.48;;;;;;;;;;5096964;28;20432;-91
2022/12/09 06:53:18;;;;;;;21.15;18.13;;;;;;;;;;5089768;28;20370;-90
2022/12/09 06:55:44;;;;;;;21.80;19.35;;;;;;;;;;5093217;28;20862;-89
2022/12/09 06:58:10;;;;;;;22.10;19.45;;;;;;;;;;5084406;28;20419;-89
2022/12/09 07:00:36;;;;;;;23.48;19.88;;;;;;;;;;5080292;28;20385;-89
2022/12/09 07:03:02;;;;;;;25.52;21.55;;;;;;;;;;5086762;28;20401;-90
2022/12/09 07:05:28;;;;;;;24.52;21.63;;;;;;;;;;5086243;28;20900;-90
2022/12/09 07:07:54;;;;;;;29.13;23.63;;;;;;;;;;5086019;28;20386;-90
2022/12/09 07:10:20;;;;;;;27.70;22.75;;;;;;;;;;5084358;28;20975;-90
2022/12/09 07:12:46;;;;;;;26.35;22.85;;;;;;;;;;5083262;28;20471;-90
2022/12/09 07:15:13;;;;;;;25.70;22.70;;;;;;;;;;5082809;28;20375;-90
2022/12/09 07:17:38;;;;;;;24.85;21.92;;;;;;;;;;5082107;28;20403;-90
2022/12/09 07:20:05;;;;;;;22.40;19.13;;;;;;;;;;5082578;28;20445;-91
2022/12/09 07:22:32;;;;;;;21.40;19.10;;;;;;;;;;5085587;28;20383;-89
2022/12/09 07:24:58;;;;;;;22.73;20.25;;;;;;;;;;5081549;28;20377;-90
2022/12/09 07:27:24;;;;;;;25.75;21.75;;;;;;;;;;5062081;28;20471;-89
2022/12/09 07:29:50;;;;;;;22.80;20.23;;;;;;;;;;5068337;28;20418;-89
2022/12/09 07:32:16;;;;;;;22.65;19.33;;;;;;;;;;5063857;28;20376;-90
2022/12/09 07:34:42;;;;;;;23.48;20.13;;;;;;;;;;5089437;28;20416;-90
2022/12/09 07:37:08;;;;;;;23.70;20.17;;;;;;;;;;5086653;28;20413;-89
2022/12/09 07:39:34;;;;;;;23.00;19.63;;;;;;;;;;5081807;28;20427;-88
2022/12/09 07:42:00;;;;;;;22.30;19.50;;;;;;;;;;5107333;28;20871;-90
2022/12/09 07:44:27;;;;;;;21.05;18.75;;;;;;;;;;5095345;28;20459;-88
2022/12/09 07:46:53;;;;;;;23.55;19.45;;;;;;;;;;5097451;28;20385;-89
2022/12/09 07:49:19;;;;;;;21.45;19.10;;;;;;;;;;5075198;28;20465;-89
2022/12/09 07:51:45;;;;;;;22.45;19.00;;;;;;;;;;5078698;28;20461;-88
2022/12/09 07:54:12;;;;;;;23.20;19.95;;;;;;;;;;5099277;28;20384;-88
2022/12/09 07:56:38;;;;;;;21.70;18.97;;;;;;;;;;5088458;28;20427;-88
2022/12/09 07:59:08;;;;;;;24.50;20.23;;;;;;;;;;5087564;28;20453;-89
2022/12/09 08:01:34;;;;;;;23.13;19.83;;;;;;;;;;5080483;28;20875;-90
2022/12/09 08:04:00;;;;;;;24.20;19.88;;;;;;;;;;5076409;28;20386;-88
2022/12/09 08:06:27;;;;;;;24.73;20.23;;;;;;;;;;5086823;28;20397;-89
2022/12/09 08:08:54;;;;;;;23.63;19.75;;;;;;;;;;5066349;28;20386;-87
2022/12/09 08:11:21;;;;;;;25.27;20.23;;;;;;;;;;5091070;28;20396;-88
2022/12/09 08:13:47;;;;;;;23.30;19.92;;;;;;;;;;5090327;28;20373;-88
2022/12/09 08:16:14;;;;;;;25.45;20.98;;;;;;;;;;5091571;28;20374;-87
2022/12/09 08:18:41;;;;;;;24.43;20.47;;;;;;;;;;5090944;28;20421;-87
2022/12/09 08:21:08;;;;;;;25.45;20.58;;;;;;;;;;5099205;28;20373;-87
2022/12/09 08:23:34;;;;;;;27.15;21.88;;;;;;;;;;5099658;28;20377;-87
2022/12/09 08:26:00;;;;;;;26.58;21.35;;;;;;;;;;5092206;28;20473;-87
2022/12/09 08:28:28;;;;;;;26.02;21.08;;;;;;;;;;5092639;28;20792;-87
2022/12/09 08:30:54;;;;;;;25.23;20.87;;;;;;;;;;5092346;28;20393;-87
2022/12/09 08:33:20;;;;;;;24.02;20.27;;;;;;;;;;5092618;28;20370;-87
2022/12/09 08:35:46;;;;;;;24.83;20.23;;;;;;;;;;5092779;28;20838;-88
2022/12/09 08:38:12;;;;;;;25.55;20.55;;;;;;;;;;5092607;28;20401;-87
2022/12/09 08:40:38;;;;;;;23.58;20.38;;;;;;;;;;5092743;28;20393;-87
2022/12/09 08:43:04;;;;;;;23.27;19.80;;;;;;;;;;5092126;28;20370;-87
2022/12/09 08:45:33;;;;;;;25.73;21.10;;;;;;;;;;5092402;28;20374;-87
2022/12/09 08:47:59;;;;;;;25.45;20.88;;;;;;;;;;5092266;28;20469;-86
2022/12/09 08:50:25;;;;;;;25.73;21.05;;;;;;;;;;5092305;28;20386;-86
2022/12/09 08:52:51;;;;;;;25.67;21.40;;;;;;;;;;5088850;28;20439;-87
2022/12/09 08:55:17;;;;;;;25.00;21.10;;;;;;;;;;5073982;28;20394;-87
2022/12/09 08:57:43;;;;;;;25.80;21.00;;;;;;;;;;5074025;28;20405;-86
2022/12/09 09:00:09;;;;;;;23.00;20.38;;;;;;;;;;5092374;28;20436;-86
2022/12/09 09:02:35;;;;;;;25.48;20.88;;;;;;;;;;5092473;28;20402;-86
2022/12/09 09:05:01;;;;;;;24.77;20.83;;;;;;;;;;5092520;28;20421;-86
2022/12/09 09:07:27;;;;;;;25.70;20.58;;;;;;;;;;5092554;28;20405;-87
2022/12/09 09:09:53;;;;;;;25.33;20.50;;;;;;;;;;5092437;28;20389;-87
2022/12/09 09:12:19;;;;;;;25.10;21.13;;;;;;;;;;5091912;28;20410;-88
2022/12/09 09:14:45;;;;;;;25.35;21.23;;;;;;;;;;5091955;28;20451;-86
2022/12/09 09:17:11;;;;;;;25.98;20.63;;;;;;;;;;5092120;28;20384;-87
2022/12/09 09:19:37;;;;;;;28.20;22.35;;;;;;;;;;5091885;28;20830;-86
2022/12/09 09:22:03;;;;;;;31.67;24.08;;;;;;;;;;5091088;28;20405;-87
2022/12/09 09:24:30;;;;;;;33.80;24.98;;;;;;;;;;5081736;28;20389;-86
2022/12/09 09:26:56;;;;;;;29.90;23.73;;;;;;;;;;5092074;28;20370;-87
2022/12/09 09:29:22;;;;;;;31.58;24.48;;;;;;;;;;5091998;28;20380;-87
2022/12/09 09:31:52;;;;;;;29.67;23.23;;;;;;;;;;5090688;28;20501;-88
2022/12/09 09:34:18;;;;;;;29.42;23.73;;;;;;;;;;5095964;28;20407;-86
2022/12/09 09:36:44;;;;;;;31.10;23.45;;;;;;;;;;5096016;28;20389;-87
2022/12/09 09:39:10;;;;;;;28.63;22.10;;;;;;;;;;5095815;28;20406;-87
2022/12/09 09:41:56;;;;;;;27.38;22.38;;;;;;;;;;5095430;28;20382;-87
2022/12/09 09:44:31;;;;;;;24.55;20.80;;;;;;;;;;5095529;28;20389;-86
2022/12/09 09:46:58;;;;;;;25.42;20.85;;;;;;;;;;5095484;28;20382;-87
2022/12/09 09:49:59;;;;;;;28.52;22.70;;;;;;;;;;5095580;28;20382;-86
2022/12/09 09:52:27;;;;;;;24.73;22.00;;;;;;;;;;5015021;28;20659;-87
2022/12/09 09:54:53;;;;;;;29.10;23.40;;;;;;;;;;5084214;28;20450;-87
2022/12/09 09:57:28;;;;;;;26.52;21.83;;;;;;;;;;5092063;28;20420;-87
2022/12/09 10:00:03;;;;;;;28.00;22.05;;;;;;;;;;5089179;28;20444;-87
2022/12/09 10:02:32;;;;;;;25.13;21.05;;;;;;;;;;5095173;28;20398;-87
2022/12/09 10:05:04;;;;;;;24.55;21.17;;;;;;;;;;5109246;28;20412;-87
2022/12/09 10:07:50;;;;;;;27.70;21.27;;;;;;;;;;5081723;28;20454;-87
2022/12/09 10:10:22;;;;;;;25.17;20.85;;;;;;;;;;5095293;28;20408;-87
2022/12/09 10:12:54;;;;;;;25.05;20.88;;;;;;;;;;5095214;28;20426;-87
2022/12/09 10:15:28;;;;;;;27.73;22.58;;;;;;;;;;5094778;28;20385;-87
2022/12/09 10:18:00;;;;;;;23.83;19.65;;;;;;;;;;5091192;28;20739;-86
2022/12/09 10:20:27;;;;;;;23.80;20.98;;;;;;;;;;5094868;28;20418;-87
2022/12/09 10:22:56;;;;;;;25.83;21.73;;;;;;;;;;5094685;28;20847;-87
2022/12/09 10:25:23;;;;;;;31.08;23.00;;;;;;;;;;5095057;28;20413;-86
2022/12/09 10:27:58;;;;;;;25.55;21.85;;;;;;;;;;5094408;28;20421;-87
2022/12/09 10:30:24;;;;;;;28.45;21.83;;;;;;;;;;5102876;28;20381;-87
2022/12/09 10:32:52;;;;;;;27.20;21.63;;;;;;;;;;5077269;28;20386;-87
2022/12/09 10:35:22;;;;;;;25.07;21.17;;;;;;;;;;5094939;28;20492;-87
2022/12/09 10:37:51;;;;;;;26.92;21.30;;;;;;;;;;5094190;28;20406;-87
2022/12/09 10:40:46;;;;;;;27.05;21.15;;;;;;;;;;5094427;28;20390;-87
2022/12/09 10:43:38;;;;;;;27.10;22.17;;;;;;;;;;5019121;28;20518;-86
2022/12/09 10:46:06;;;;;;;28.40;22.75;;;;;;;;;;5086660;28;20380;-86
2022/12/09 10:48:36;;;;;;;29.25;23.88;;;;;;;;;;5094569;28;20478;-86
2022/12/09 10:51:04;;;;;;;30.60;24.38;;;;;;;;;;5091333;28;20442;-86
2022/12/09 10:53:31;;;;;;;27.42;22.33;;;;;;;;;;5094423;28;20460;-86
2022/12/09 10:55:58;;;;;;;24.23;21.38;;;;;;;;;;5075994;28;20776;-87
2022/12/09 10:58:29;;;;;;;27.88;22.48;;;;;;;;;;5093980;28;20458;-87
2022/12/09 11:01:15;;;;;;;28.48;22.13;;;;;;;;;;5093953;28;20405;-86
2022/12/09 11:03:48;;;;;;;28.52;22.58;;;;;;;;;;5093959;28;20418;-87
2022/12/09 11:06:22;;;;;;;26.77;22.15;;;;;;;;;;5094063;28;20524;-87
2022/12/09 11:08:50;;;;;;;25.00;20.98;;;;;;;;;;5094149;28;20444;-87
2022/12/09 11:11:17;;;;;;;27.15;22.52;;;;;;;;;;5094240;28;20731;-87
2022/12/09 11:13:43;;;;;;;29.45;23.88;;;;;;;;;;5093915;28;20409;-88
2022/12/09 11:16:10;;;;;;;28.33;22.73;;;;;;;;;;5093709;28;20457;-87
2022/12/09 11:18:44;;;;;;;32.10;23.60;;;;;;;;;;5093494;28;20406;-87
2022/12/09 11:21:27;;;;;;;27.23;22.30;;;;;;;;;;5093637;28;20921;-86
2022/12/09 11:23:54;;;;;;;28.17;22.08;;;;;;;;;;5093274;28;20382;-87
2022/12/09 11:26:25;;;;;;;28.10;22.00;;;;;;;;;;5093711;28;20899;-87
2022/12/09 11:29:20;;;;;;;23.70;20.20;;;;;;;;;;5093647;28;20389;-87
2022/12/09 11:31:46;;;;;;;28.05;24.15;;;;;;;;;;5075931;28;20460;-87
2022/12/09 11:34:24;;;;;;;33.13;28.00;;;;;;;;;;5093125;28;20374;-87
2022/12/09 11:36:55;;;;;;;27.98;23.85;;;;;;;;;;5093380;28;20378;-87
2022/12/09 11:39:24;;;;;;;27.25;23.17;;;;;;;;;;5093307;28;20421;-86
2022/12/09 11:44:37;;;;;;;23.90;20.90;;;;;;;;;;5093370;28;20482;-87
2022/12/09 11:47:03;;;;;;;27.37;22.57;;;;;;;;;;5093605;28;20413;-87
2022/12/09 11:49:32;;;;;;;27.27;22.63;;;;;;;;;;5069482;28;20430;-86
2022/12/09 11:52:21;;;;;;;29.98;23.38;;;;;;;;;;5089509;28;20420;-85
2022/12/09 11:54:56;;;;;;;29.08;23.75;;;;;;;;;;5071768;28;20414;-85
2022/12/09 11:57:25;;;;;;;29.60;22.63;;;;;;;;;;5078475;28;20385;-86
2022/12/09 11:59:53;;;;;;;26.52;22.27;;;;;;;;;;5091492;28;20436;-86
2022/12/09 12:02:22;;;;;;;27.25;22.65;;;;;;;;;;5086554;28;20368;-86
2022/12/09 12:04:48;;;;;;;24.88;21.98;;;;;;;;;;5076384;28;20376;-86
2022/12/09 12:07:17;;;;;;;25.83;21.90;;;;;;;;;;5075791;28;20685;-85
2022/12/09 12:09:53;;;;;;;25.77;22.60;;;;;;;;;;5074350;28;20376;-86
2022/12/09 12:12:21;;;;;;;28.33;23.77;;;;;;;;;;5075613;28;20429;-86
2022/12/09 12:14:47;;;;;;;29.42;23.30;;;;;;;;;;5081009;28;20378;-86
2022/12/09 12:17:16;;;;;;;27.02;22.60;;;;;;;;;;5077465;28;20387;-85
2022/12/09 12:19:43;;;;;;;26.67;22.55;;;;;;;;;;5072820;28;20450;-86
2022/12/09 12:22:08;;;;;;;26.90;22.60;;;;;;;;;;5087461;28;20389;-85
2022/12/09 12:24:37;;;;;;;24.80;21.53;;;;;;;;;;5092787;28;20434;-86
2022/12/09 12:27:06;;;;;;;26.38;22.10;;;;;;;;;;5092737;28;20410;-85
2022/12/09 12:29:35;;;;;;;27.52;22.23;;;;;;;;;;5094499;28;20455;-86
2022/12/09 12:32:01;;;;;;;29.63;24.50;;;;;;;;;;5091199;28;20419;-86
2022/12/09 12:34:30;;;;;;;29.65;22.77;;;;;;;;;;5075405;28;20372;-86
2022/12/09 12:36:56;;;;;;;31.38;23.58;;;;;;;;;;5079169;28;20417;-85
2022/12/09 12:39:28;;;;;;;27.92;22.85;;;;;;;;;;5072018;28;20415;-86
2022/12/09 12:42:13;;;;;;;25.10;21.70;;;;;;;;;;5092237;28;20429;-86
2022/12/09 12:47:33;;;;;;;28.92;22.95;;;;;;;;;;5076997;28;20375;-86
2022/12/09 12:50:14;;;;;;;27.83;22.58;;;;;;;;;;5088492;28;20435;-85
2022/12/09 12:52:59;;;;;;;24.83;21.92;;;;;;;;;;5074035;28;20891;-86
2022/12/09 12:55:33;;;;;;;26.33;22.42;;;;;;;;;;5092173;28;20433;-85
2022/12/09 12:57:59;;;;;;;27.42;22.75;;;;;;;;;;5092268;28;20475;-86
2022/12/09 13:00:27;;;;;;;26.02;22.85;;;;;;;;;;5088762;28;20447;-86
2022/12/09 13:03:05;;;;;;;28.50;23.65;;;;;;;;;;5092329;28;20942;-86
2022/12/09 13:05:35;;;;;;;30.05;24.02;;;;;;;;;;5093270;28;20404;-86
2022/12/09 13:08:24;;;;;;;30.60;23.75;;;;;;;;;;5083348;28;20438;-86
2022/12/09 13:10:53;;;;;;;28.63;24.42;;;;;;;;;;5068059;28;20449;-86
2022/12/09 13:13:34;;;;;;;28.50;24.17;;;;;;;;;;5079475;28;20392;-86
2022/12/09 13:16:02;;;;;;;30.42;24.23;;;;;;;;;;5064279;28;20413;-86
2022/12/09 13:18:30;;;;;;;31.67;25.10;;;;;;;;;;5095936;28;20902;-85
2022/12/09 13:20:57;;;;;;;33.33;26.83;;;;;;;;;;5096009;28;20378;-86
2022/12/09 13:23:23;;;;;;;31.85;26.27;;;;;;;;;;5095976;28;20390;-86
2022/12/09 13:25:55;;;;;;;34.30;26.75;;;;;;;;;;5095535;28;20818;-87
2022/12/09 13:28:45;;;;;;;33.33;25.67;;;;;;;;;;5096043;28;20487;-87
2022/12/09 13:31:11;;;;;;;31.90;25.07;;;;;;;;;;5079130;28;20472;-88
2022/12/09 13:33:58;;;;;;;35.88;27.38;;;;;;;;;;5107920;28;20720;-85
2022/12/09 13:36:34;;;;;;;31.92;25.85;;;;;;;;;;5095303;28;25110;-85
2022/12/09 13:39:00;;;;;;;45.90;31.52;;;;;;;;;;5092763;28;20409;-85
2022/12/09 13:41:26;;;;;;;37.75;28.25;;;;;;;;;;5095561;28;20847;-84
2022/12/09 13:44:06;;;;;;;30.08;24.85;;;;;;;;;;5095680;28;20935;-85
2022/12/09 13:46:33;;;;;;;27.90;24.03;;;;;;;;;;5094299;28;20509;-86
2022/12/09 13:49:07;;;;;;;30.38;24.77;;;;;;;;;;5087199;28;20450;-85
2022/12/09 13:51:43;;;;;;;32.53;25.27;;;;;;;;;;5067223;28;20437;-85
2022/12/09 13:54:14;;;;;;;38.15;31.60;;;;;;;;;;5085868;28;20379;-86
2022/12/09 13:56:40;;;;;;;35.95;26.92;;;;;;;;;;5094208;28;20381;-86
2022/12/09 13:59:09;;;;;;;29.58;24.10;;;;;;;;;;5079893;28;20491;-85
2022/12/09 14:01:35;;;;;;;43.85;32.50;;;;;;;;;;5096056;28;20506;-85
2022/12/09 14:04:08;;;;;;;36.75;28.95;;;;;;;;;;5079602;28;20378;-85
2022/12/09 14:06:49;;;;;;;31.90;26.02;;;;;;;;;;5084730;28;20420;-85
2022/12/09 14:09:15;;;;;;;35.63;26.95;;;;;;;;;;5074164;28;20394;-84
2022/12/09 14:11:43;;;;;;;36.80;27.40;;;;;;;;;;5077671;28;20380;-85
2022/12/09 14:14:24;;;;;;;31.80;25.65;;;;;;;;;;5077198;28;20412;-85
2022/12/09 14:16:50;;;;;;;30.97;24.40;;;;;;;;;;5091909;28;20399;-84
2022/12/09 14:19:26;;;;;;;32.33;24.58;;;;;;;;;;5094450;28;20437;-85
2022/12/09 14:22:24;;;;;;;28.85;23.33;;;;;;;;;;5079387;28;20761;-85
2022/12/09 14:24:54;;;;;;;26.90;22.67;;;;;;;;;;5048373;28;20416;-85
2022/12/09 14:27:20;;;;;;;26.83;21.73;;;;;;;;;;5098574;28;20964;-85
2022/12/09 14:29:46;;;;;;;26.60;21.80;;;;;;;;;;5094536;28;20855;-85
2022/12/09 14:32:18;;;;;;;27.80;22.85;;;;;;;;;;5094684;28;20378;-85
2022/12/09 14:34:46;;;;;;;26.00;22.67;;;;;;;;;;5076180;28;20927;-84
2022/12/09 14:37:25;;;;;;;27.50;23.08;;;;;;;;;;5094631;28;20499;-85